Brooklyn, CT (06234)

1:23 AM EST on January 29, 2015 (GMT -0500)
Allen Hill Road | Change Station
CLOSE
Current Station
Personal Weather Station
Location: Brooklyn, CT
Elevation: 341 ft
Nearby Weather Stations

Elev 341 ft 41.78 °N, 71.92 °W | Updated 1 minute ago

Clear
Clear
11.9 °F
Feels Like 12 °F
N
1.0
Wind Variable Wind from ENE
Gusts 1.0 mph

Today
High -- | Low -- °F
--% Chance of Precip.
Yesterday
High -- | Low -- °F
Precip. -- in
7:03 AM 4:59 PM
Waxing Gibbous, 71% visible
Pressure 30.27 in
Visibility 10.0 miles
Clouds Clear
Windchill 12 °F
Dew Point 1 °F
Humidity 62%
Rainfall 0.00 in
Snow Depth Not available.
UV 0 out of 12
Pollen .10 out of 12
Air Quality Not available.
Flu Activity Not available.
METAR KIJD 290552Z AUTO 06003KT 10SM CLR M17/M20 A3026 RMK AO2 SLP250 T11671200 11050 21178 51017

More Conditions Fewer Conditions

Pressure 30.27 in
Visibility 10.0 miles
Clouds Clear
Windchill 12 °F
Dew Point 1 °F
Humidity 62%
Rainfall 0.00 in
Snow Depth Not available.
UV 0 out of 12
Pollen .10 out of 12
Air Quality Not available.
Flu Activity Not available.
METAR KIJD 290552Z AUTO 06003KT 10SM CLR M17/M20 A3026 RMK AO2 SLP250 T11671200 11050 21178 51017

More Conditions Fewer Conditions

10-Day Weather Forecast

Almanac

Astronomy

Jan. 29, 2015 Rise Set
Actual Time
Civil Twilight
Nautical Twilight
Astronomical Twilight
Moon
Length of Visible Light
Length of Day
Tomorrow will be .
, % of the Moon is Illuminated

Today's Extremes

State Highs State Lows

Community

WunderPhotos

Upload Photos

1,791,369 photos uploaded!

WunderBlogs® & News

Nearby

Air Quality

  Air Quality AQ Index Pollutant
Not available.

Snow Depth

Station Depth Elevation

Earthquake Activity

City Distance Mag. Time & Date
Minimum magnitude displayed is 2.5.

Coastal Water Temperatures

Place Temperature

Nearby Weather Stations